createdAt,value
2018-12-21T00:00:44.341Z,100790.89
2018-12-21T00:03:10.486Z,100789.09
2018-12-21T00:05:36.653Z,100796.72
2018-12-21T00:08:02.817Z,100791.17
2018-12-21T00:10:28.978Z,100799.17
2018-12-21T00:12:55.180Z,100797.95
2018-12-21T00:15:21.324Z,100805.47
2018-12-21T00:17:47.504Z,100804.86
2018-12-21T00:20:13.692Z,100805.89
2018-12-21T00:22:39.849Z,100810.39
2018-12-21T00:25:06.029Z,100803.97
2018-12-21T00:27:32.206Z,100805.77
2018-12-21T00:29:58.349Z,100811.13
2018-12-21T00:32:30.662Z,100815.45
2018-12-21T00:35:02.985Z,100818.42
2018-12-21T00:37:35.265Z,100824.56
2018-12-21T00:42:53.494Z,100818.42
2018-12-21T00:45:21.712Z,100809.45
2018-12-21T00:47:47.846Z,100807.73
2018-12-21T00:50:14.001Z,100804.87
2018-12-21T00:52:40.323Z,100819.67
2018-12-21T00:55:06.622Z,100817.02
2018-12-21T00:57:33.060Z,100821.23
2018-12-21T00:59:59.257Z,100831.98
2018-12-21T01:02:25.446Z,100829.28
2018-12-21T01:04:51.613Z,100833.23
2018-12-21T01:07:17.810Z,100823.61
2018-12-21T01:09:43.959Z,100818.47
2018-12-21T01:12:11.186Z,100822.66
2018-12-21T01:14:37.640Z,100819.52
2018-12-21T01:17:04.250Z,100806.56
2018-12-21T01:19:30.432Z,100801.32
2018-12-21T01:21:56.634Z,100796.37
2018-12-21T01:24:22.813Z,100785.13
2018-12-21T01:26:48.965Z,100779.59
2018-12-21T01:29:15.173Z,100768.64
2018-12-21T01:31:41.372Z,100768.06
2018-12-21T01:34:07.524Z,100777.34
2018-12-21T01:36:33.739Z,100775.86
2018-12-21T01:38:59.886Z,100775.13
2018-12-21T01:41:26.033Z,100777.27
2018-12-21T01:43:52.260Z,100779.42
2018-12-21T01:46:18.402Z,100782.77
2018-12-21T01:48:44.540Z,100783.56
2018-12-21T01:51:10.719Z,100789.69
2018-12-21T01:53:36.865Z,100783.05
2018-12-21T01:56:03.048Z,100775.55
2018-12-21T01:58:29.231Z,100765.95
2018-12-21T02:00:55.415Z,100763.14
2018-12-21T02:03:21.574Z,100760.21
2018-12-21T02:05:47.758Z,100764.88
2018-12-21T02:08:13.905Z,100764.80
2018-12-21T02:10:40.066Z,100772.23
2018-12-21T02:13:06.286Z,100770.77
2018-12-21T02:15:32.441Z,100769.49
2018-12-21T02:17:58.594Z,100772.77
2018-12-21T02:20:24.762Z,100769.98
2018-12-21T02:22:50.921Z,100771.70
2018-12-21T02:25:17.072Z,100776.45
2018-12-21T02:27:43.241Z,100765.46
2018-12-21T02:30:09.442Z,100764.67
2018-12-21T02:32:35.721Z,100756.41
2018-12-21T02:35:01.893Z,100757.23
2018-12-21T02:37:28.055Z,100751.17
2018-12-21T02:39:54.204Z,100756.27
2018-12-21T02:42:20.409Z,100748.70
2018-12-21T02:44:46.564Z,100743.80
2018-12-21T02:47:12.705Z,100740.85
2018-12-21T02:49:38.909Z,100731.05
2018-12-21T02:52:05.705Z,100740.28
2018-12-21T02:54:32.172Z,100746.64
2018-12-21T02:56:58.374Z,100745.61
2018-12-21T02:59:24.539Z,100746.41
2018-12-21T03:01:50.689Z,100737.40
2018-12-21T03:04:16.872Z,100730.70
2018-12-21T03:06:43.051Z,100734.89
2018-12-21T03:09:09.209Z,100736.72
2018-12-21T03:11:35.404Z,100738.44
2018-12-21T03:14:01.572Z,100729.02
2018-12-21T03:16:27.740Z,100733.97
2018-12-21T03:18:53.913Z,100728.93
2018-12-21T03:21:20.063Z,100724.64
2018-12-21T03:23:46.217Z,100729.16
2018-12-21T03:26:12.407Z,100733.18
2018-12-21T03:28:38.568Z,100729.81
2018-12-21T03:31:04.733Z,100729.89
2018-12-21T03:33:30.914Z,100726.32
2018-12-21T03:35:57.061Z,100725.56
2018-12-21T03:38:23.250Z,100736.58
2018-12-21T03:40:49.425Z,100742.54
2018-12-21T03:43:15.607Z,100744.63
2018-12-21T03:45:41.750Z,100746.05
2018-12-21T03:48:07.913Z,100743.91
2018-12-21T03:50:34.209Z,100736.97
2018-12-21T03:53:00.370Z,100738.82
2018-12-21T03:55:26.571Z,100749.56
2018-12-21T03:57:52.726Z,100748.13
2018-12-21T04:00:18.884Z,100751.09
2018-12-21T04:02:45.054Z,100754.88
2018-12-21T04:05:11.259Z,100750.89
2018-12-21T04:07:37.413Z,100752.30
2018-12-21T04:10:04.449Z,100747.67
2018-12-21T04:12:30.614Z,100752.53
2018-12-21T04:14:56.763Z,100754.51
2018-12-21T04:17:22.943Z,100741.55
2018-12-21T04:19:49.078Z,100745.50
2018-12-21T04:22:15.232Z,100750.94
2018-12-21T04:24:41.446Z,100742.63
2018-12-21T04:27:07.582Z,100754.25
2018-12-21T04:29:33.716Z,100754.03
2018-12-21T04:31:59.892Z,100760.93
2018-12-21T04:34:26.077Z,100758.89
2018-12-21T04:36:52.241Z,100759.25
2018-12-21T04:39:18.491Z,100769.60
2018-12-21T04:41:44.634Z,100766.72
2018-12-21T04:44:10.785Z,100776.41
2018-12-21T04:46:37.109Z,100770.48
2018-12-21T04:49:03.309Z,100769.55
2018-12-21T04:51:29.444Z,100770.35
2018-12-21T04:53:57.419Z,100766.98
2018-12-21T04:56:23.830Z,100772.23
2018-12-21T04:58:50.021Z,100784.14
2018-12-21T05:01:16.346Z,100779.09
2018-12-21T05:03:42.505Z,100774.62
2018-12-21T05:06:08.653Z,100774.93
2018-12-21T05:08:34.840Z,100765.08
2018-12-21T05:11:02.161Z,100770.31
2018-12-21T05:13:28.310Z,100770.40
2018-12-21T05:15:54.641Z,100764.55
2018-12-21T05:18:20.790Z,100765.64
2018-12-21T05:20:46.946Z,100764.14
2018-12-21T05:23:13.137Z,100772.27
2018-12-21T05:25:39.267Z,100772.80
2018-12-21T05:28:05.443Z,100787.79
2018-12-21T05:30:31.667Z,100789.22
2018-12-21T05:32:57.852Z,100790.73
2018-12-21T05:35:24.030Z,100785.75
2018-12-21T05:37:50.196Z,100775.98
2018-12-21T05:40:16.353Z,100775.33
2018-12-21T05:42:42.502Z,100779.65
2018-12-21T05:45:08.692Z,100782.13
2018-12-21T05:47:34.922Z,100784.80
2018-12-21T05:50:01.103Z,100773.45
2018-12-21T05:52:27.276Z,100786.20
2018-12-21T05:54:53.425Z,100789.41
2018-12-21T05:57:19.566Z,100784.83
2018-12-21T05:59:45.733Z,100789.55
2018-12-21T06:02:11.886Z,100784.96
2018-12-21T06:04:38.034Z,100784.75
2018-12-21T06:07:04.234Z,100790.06
2018-12-21T06:09:30.369Z,100785.13
2018-12-21T06:11:56.508Z,100781.18
2018-12-21T06:14:22.685Z,100782.82
2018-12-21T06:16:48.825Z,100788.40
2018-12-21T06:19:15.002Z,100782.23
2018-12-21T06:21:41.190Z,100778.19
2018-12-21T06:24:07.345Z,100784.04
2018-12-21T06:26:33.493Z,100785.37
2018-12-21T06:28:59.667Z,100790.48
2018-12-21T06:31:25.813Z,100784.61
2018-12-21T06:33:51.990Z,100778.81
2018-12-21T06:36:18.153Z,100777.13
2018-12-21T06:38:44.314Z,100784.48
2018-12-21T06:41:10.453Z,100780.72
2018-12-21T06:43:36.623Z,100777.02
2018-12-21T06:46:02.928Z,100777.64
2018-12-21T06:48:29.132Z,100781.64
2018-12-21T06:50:55.333Z,100783.84
2018-12-21T06:53:21.484Z,100790.58
2018-12-21T06:55:47.629Z,100784.72
2018-12-21T06:58:13.813Z,100782.11
2018-12-21T07:00:39.987Z,100783.98
2018-12-21T07:03:06.148Z,100776.98
2018-12-21T07:05:32.328Z,100789.70
2018-12-21T07:07:58.465Z,100782.87
2018-12-21T07:10:24.610Z,100777.67
2018-12-21T07:12:50.769Z,100779.98
2018-12-21T07:15:16.892Z,100775.55
2018-12-21T07:17:43.041Z,100783.30
2018-12-21T07:20:09.778Z,100773.59
2018-12-21T07:22:36.031Z,100768.80
2018-12-21T07:25:02.923Z,100771.00
2018-12-21T07:27:29.121Z,100766.67
2018-12-21T07:29:55.264Z,100772.75
2018-12-21T07:32:21.414Z,100776.22
2018-12-21T07:34:47.579Z,100782.37
2018-12-21T07:37:13.721Z,100783.34
2018-12-21T07:39:39.885Z,100783.48
2018-12-21T07:42:06.064Z,100784.21
2018-12-21T07:44:32.184Z,100790.98
2018-12-21T07:46:58.313Z,100790.27
2018-12-21T07:49:24.493Z,100785.66
2018-12-21T07:51:50.649Z,100775.86
2018-12-21T07:54:16.787Z,100779.91
2018-12-21T07:56:43.001Z,100783.75
2018-12-21T07:59:09.153Z,100778.70
2018-12-21T08:01:35.308Z,100780.88
2018-12-21T08:04:01.526Z,100778.59
2018-12-21T08:06:27.665Z,100779.24
2018-12-21T08:08:53.832Z,100766.52
2018-12-21T08:11:19.993Z,100771.93
2018-12-21T08:13:46.146Z,100769.89
2018-12-21T08:16:12.280Z,100763.18
2018-12-21T08:18:38.460Z,100768.34
2018-12-21T08:23:44.425Z,100759.65
2018-12-21T08:26:09.109Z,100762.02
2018-12-21T08:28:35.261Z,100755.32
2018-12-21T08:31:01.425Z,100757.63
2018-12-21T08:33:27.561Z,100764.42
2018-12-21T08:35:53.690Z,100763.53
2018-12-21T08:38:19.845Z,100758.73
2018-12-21T08:40:46.008Z,100753.32
2018-12-21T08:43:12.138Z,100741.75
2018-12-21T08:45:38.312Z,100734.85
2018-12-21T08:48:04.454Z,100740.29
2018-12-21T08:50:30.589Z,100722.66
2018-12-21T08:52:56.758Z,100729.59
2018-12-21T08:55:22.902Z,100726.39
2018-12-21T08:57:49.037Z,100733.95
2018-12-21T09:00:15.250Z,100735.11
2018-12-21T09:02:41.397Z,100740.36
2018-12-21T09:05:07.633Z,100737.97
2018-12-21T09:07:33.833Z,100736.30
2018-12-21T09:09:59.984Z,100735.63
2018-12-21T09:12:26.154Z,100735.00
2018-12-21T09:14:52.337Z,100739.27
2018-12-21T09:17:18.469Z,100739.80
2018-12-21T09:19:44.640Z,100745.19
2018-12-21T09:22:10.837Z,100734.16
2018-12-21T09:24:36.989Z,100729.19
2018-12-21T09:27:03.176Z,100723.31
2018-12-21T09:29:29.357Z,100716.80
2018-12-21T09:31:55.522Z,100705.77
2018-12-21T09:34:21.662Z,100693.44
2018-12-21T09:36:47.874Z,100687.87
2018-12-21T09:39:14.157Z,100683.53
2018-12-21T09:41:40.308Z,100672.66
2018-12-21T09:44:06.489Z,100660.23
2018-12-21T09:46:32.624Z,100655.97
2018-12-21T09:48:58.762Z,100658.17
2018-12-21T09:51:24.944Z,100664.98
2018-12-21T09:53:51.096Z,100660.33
2018-12-21T09:56:17.273Z,100655.30
2018-12-21T09:58:43.453Z,100640.71
2018-12-21T10:01:09.630Z,100640.75
2018-12-21T10:03:35.938Z,100638.45
2018-12-21T10:06:02.132Z,100639.86
2018-12-21T10:08:28.921Z,100643.44
2018-12-21T10:10:55.070Z,100648.26
2018-12-21T10:13:21.221Z,100641.97
2018-12-21T10:15:47.365Z,100644.43
2018-12-21T10:18:13.541Z,100634.84
2018-12-21T10:20:39.878Z,100632.31
2018-12-21T10:23:06.025Z,100643.80
2018-12-21T10:25:32.177Z,100641.23
2018-12-21T10:27:58.374Z,100632.66
2018-12-21T10:30:24.547Z,100628.39
2018-12-21T10:32:50.688Z,100622.85
2018-12-21T10:35:16.869Z,100621.78
2018-12-21T10:37:43.022Z,100612.39
2018-12-21T10:40:09.201Z,100590.61
2018-12-21T10:42:35.412Z,100589.09
2018-12-21T10:45:01.686Z,100593.66
2018-12-21T10:47:27.840Z,100596.65
2018-12-21T10:49:54.053Z,100594.39
2018-12-21T10:52:20.205Z,100593.20
2018-12-21T10:54:46.470Z,100591.50
2018-12-21T10:57:12.788Z,100593.94
2018-12-21T10:59:43.334Z,100602.70
2018-12-21T11:02:07.170Z,100604.00
2018-12-21T11:04:33.338Z,100597.99
2018-12-21T11:06:59.484Z,100602.70
2018-12-21T11:09:25.642Z,100604.09
2018-12-21T11:11:51.830Z,100608.22
2018-12-21T11:14:17.974Z,100612.84
2018-12-21T11:16:44.149Z,100613.37
2018-12-21T11:19:10.366Z,100611.45
2018-12-21T11:21:36.508Z,100608.86
2018-12-21T11:24:02.714Z,100615.19
2018-12-21T11:26:28.925Z,100620.94
2018-12-21T11:28:55.082Z,100624.75
2018-12-21T11:31:21.269Z,100619.20
2018-12-21T11:33:47.468Z,100615.98
2018-12-21T11:36:13.618Z,100611.48
2018-12-21T11:38:39.767Z,100612.30
2018-12-21T11:41:05.979Z,100616.42
2018-12-21T11:43:32.112Z,100620.52
2018-12-21T11:45:58.302Z,100622.13
2018-12-21T11:48:24.509Z,100622.22
2018-12-21T11:50:50.652Z,100625.42
2018-12-21T11:53:16.801Z,100617.89
2018-12-21T11:55:42.994Z,100610.20
2018-12-21T11:58:09.128Z,100608.13
2018-12-21T12:00:35.274Z,100602.53
2018-12-21T12:03:01.429Z,100600.99
2018-12-21T12:05:27.548Z,100604.75
2018-12-21T12:07:53.703Z,100596.50
2018-12-21T12:10:19.869Z,100620.53
2018-12-21T12:12:46.012Z,100615.40
2018-12-21T12:15:12.301Z,100612.91
2018-12-21T12:17:38.489Z,100618.97
2018-12-21T12:20:05.379Z,100618.09
2018-12-21T12:22:31.543Z,100623.55
2018-12-21T12:24:57.712Z,100618.98
2018-12-21T12:27:23.860Z,100625.98
2018-12-21T12:29:50.001Z,100625.62
2018-12-21T12:32:16.187Z,100633.87
2018-12-21T12:34:42.332Z,100630.88
2018-12-21T12:37:08.473Z,100619.69
2018-12-21T12:39:34.628Z,100610.62
2018-12-21T12:42:00.784Z,100603.78
2018-12-21T12:44:26.937Z,100598.78
2018-12-21T12:46:53.164Z,100605.05
2018-12-21T12:49:19.310Z,100605.27
2018-12-21T12:51:45.461Z,100610.45
2018-12-21T12:54:11.655Z,100602.00
2018-12-21T12:56:37.809Z,100596.71
2018-12-21T12:59:03.966Z,100588.36
2018-12-21T13:01:30.133Z,100589.36
2018-12-21T13:03:56.297Z,100588.65
2018-12-21T13:06:22.457Z,100583.00
2018-12-21T13:08:48.616Z,100577.80
2018-12-21T13:11:14.757Z,100573.73
2018-12-21T13:13:40.901Z,100570.87
2018-12-21T13:16:07.085Z,100569.23
2018-12-21T13:18:33.264Z,100564.50
2018-12-21T13:20:59.511Z,100570.21
2018-12-21T13:23:25.673Z,100557.42
2018-12-21T13:25:51.842Z,100556.95
2018-12-21T13:28:17.990Z,100554.22
2018-12-21T13:30:44.173Z,100559.83
2018-12-21T13:33:10.302Z,100560.91
2018-12-21T13:35:36.576Z,100565.42
2018-12-21T13:38:02.776Z,100556.67
2018-12-21T13:40:28.902Z,100560.31
2018-12-21T13:42:55.063Z,100565.71
2018-12-21T13:45:21.245Z,100562.94
2018-12-21T13:47:47.425Z,100563.69
2018-12-21T13:50:13.580Z,100565.23
2018-12-21T13:52:39.757Z,100574.40
2018-12-21T13:55:06.038Z,100583.70
2018-12-21T13:57:32.205Z,100585.23
2018-12-21T13:59:58.385Z,100569.59
2018-12-21T14:02:24.545Z,100556.52
2018-12-21T14:04:50.688Z,100555.98
2018-12-21T14:07:16.865Z,100561.52
2018-12-21T14:09:43.006Z,100543.17
2018-12-21T14:12:09.168Z,100559.53
2018-12-21T14:14:35.666Z,100566.34
2018-12-21T14:17:02.057Z,100582.10
2018-12-21T14:19:28.218Z,100580.16
2018-12-21T14:21:54.384Z,100575.33
2018-12-21T14:24:20.589Z,100572.28
2018-12-21T14:26:46.735Z,100575.20
2018-12-21T14:29:12.902Z,100569.03
2018-12-21T14:31:39.057Z,100561.64
2018-12-21T14:34:05.205Z,100566.23
2018-12-21T14:36:31.386Z,100583.06
2018-12-21T14:38:57.536Z,100594.30
2018-12-21T14:41:25.487Z,100585.47
2018-12-21T14:43:51.869Z,100582.58
2018-12-21T14:46:18.043Z,100586.95
2018-12-21T14:48:44.210Z,100573.26
2018-12-21T14:51:10.401Z,100572.89
2018-12-21T14:53:36.570Z,100588.52
2018-12-21T14:56:02.723Z,100581.48
2018-12-21T14:58:28.969Z,100571.83
2018-12-21T15:00:55.201Z,100577.73
2018-12-21T15:03:21.422Z,100574.22
2018-12-21T15:05:47.597Z,100573.02
2018-12-21T15:08:13.749Z,100575.91
2018-12-21T15:10:39.894Z,100585.45
2018-12-21T15:13:06.090Z,100592.47
2018-12-21T15:15:32.241Z,100592.44
2018-12-21T15:17:58.403Z,100589.05
2018-12-21T15:20:24.609Z,100587.40
2018-12-21T15:22:50.749Z,100584.38
2018-12-21T15:25:16.933Z,100582.11
2018-12-21T15:27:43.195Z,100577.73
2018-12-21T15:30:09.787Z,100570.74
2018-12-21T15:32:35.957Z,100564.18
2018-12-21T15:35:02.426Z,100549.30
2018-12-21T15:37:28.589Z,100552.47
2018-12-21T15:39:54.747Z,100560.42
2018-12-21T15:42:20.949Z,100557.79
2018-12-21T15:44:47.097Z,100557.41
2018-12-21T15:47:13.273Z,100560.53
2018-12-21T15:49:40.816Z,100554.42
2018-12-21T15:52:07.176Z,100549.43
2018-12-21T15:54:33.318Z,100550.80
2018-12-21T15:56:59.568Z,100554.94
2018-12-21T15:59:25.712Z,100548.91
2018-12-21T16:01:51.875Z,100550.41
2018-12-21T16:04:18.053Z,100535.51
2018-12-21T16:06:44.200Z,100529.70
2018-12-21T16:09:10.541Z,100534.41
2018-12-21T16:11:36.749Z,100551.00
2018-12-21T16:14:03.164Z,100549.05
2018-12-21T16:16:29.518Z,100549.17
2018-12-21T16:18:56.069Z,100547.85
2018-12-21T16:21:22.197Z,100539.47
2018-12-21T16:23:48.358Z,100537.09
2018-12-21T16:26:14.538Z,100537.66
2018-12-21T16:28:42.111Z,100541.08
2018-12-21T16:31:08.451Z,100540.71
2018-12-21T16:33:34.746Z,100545.94
2018-12-21T16:36:00.893Z,100542.54
2018-12-21T16:38:27.034Z,100530.80
2018-12-21T16:40:53.209Z,100525.45
2018-12-21T16:43:19.369Z,100519.41
2018-12-21T16:45:45.517Z,100525.36
2018-12-21T16:48:11.685Z,100528.98
2018-12-21T16:50:37.842Z,100513.52
2018-12-21T16:53:04.001Z,100521.38
2018-12-21T16:55:30.172Z,100511.22
2018-12-21T16:57:56.309Z,100496.92
2018-12-21T17:00:22.481Z,100501.30
2018-12-21T17:02:48.667Z,100506.08
2018-12-21T17:05:14.810Z,100505.01
2018-12-21T17:07:40.964Z,100510.58
2018-12-21T17:10:09.809Z,100520.03
2018-12-21T17:12:35.989Z,100533.31
2018-12-21T17:15:02.268Z,100528.90
2018-12-21T17:17:28.432Z,100534.43
2018-12-21T17:19:54.603Z,100535.55
2018-12-21T17:22:20.754Z,100530.04
2018-12-21T17:24:47.077Z,100530.39
2018-12-21T17:27:13.205Z,100520.36
2018-12-21T17:29:39.518Z,100519.05
2018-12-21T17:32:05.698Z,100509.16
2018-12-21T17:34:31.844Z,100495.26
2018-12-21T17:36:57.997Z,100506.72
2018-12-21T17:39:24.164Z,100500.45
2018-12-21T17:41:50.309Z,100508.55
2018-12-21T17:44:16.454Z,100509.69
2018-12-21T17:46:42.617Z,100508.58
2018-12-21T17:49:08.766Z,100518.14
2018-12-21T17:51:34.946Z,100519.34
2018-12-21T17:54:01.152Z,100514.06
2018-12-21T17:56:30.051Z,100510.92
2018-12-21T17:58:55.488Z,100519.25
2018-12-21T18:01:21.820Z,100507.30
2018-12-21T18:03:50.626Z,100513.94
2018-12-21T18:06:16.778Z,100513.70
2018-12-21T18:08:43.074Z,100517.33
2018-12-21T18:11:09.209Z,100516.68
2018-12-21T18:13:35.353Z,100511.30
2018-12-21T18:16:01.535Z,100514.22
2018-12-21T18:18:27.687Z,100496.75
2018-12-21T18:20:53.846Z,100496.66
2018-12-21T18:23:20.194Z,100489.20
2018-12-21T18:25:46.338Z,100478.80
2018-12-21T18:28:16.533Z,100484.79
2018-12-21T18:30:42.725Z,100473.73
2018-12-21T18:33:10.970Z,100473.61
2018-12-21T18:35:37.331Z,100476.02
2018-12-21T18:38:03.490Z,100472.52
2018-12-21T18:40:29.800Z,100471.63
2018-12-21T18:42:55.962Z,100464.88
2018-12-21T18:45:22.145Z,100468.09
2018-12-21T18:47:48.285Z,100472.83
2018-12-21T18:50:14.449Z,100474.76
2018-12-21T18:52:40.656Z,100472.92
2018-12-21T18:55:10.331Z,100479.29
2018-12-21T18:57:36.479Z,100476.30
2018-12-21T19:00:08.097Z,100479.50
2018-12-21T19:02:34.254Z,100478.41
2018-12-21T19:05:00.414Z,100484.03
2018-12-21T19:07:26.594Z,100479.74
2018-12-21T19:09:52.742Z,100471.37
2018-12-21T19:12:18.969Z,100467.31
2018-12-21T19:14:45.320Z,100462.23
2018-12-21T19:17:11.482Z,100462.36
2018-12-21T19:19:37.719Z,100456.55
2018-12-21T19:22:03.933Z,100455.12
2018-12-21T19:24:30.095Z,100455.09
2018-12-21T19:26:56.232Z,100444.60
2018-12-21T19:29:22.416Z,100446.52
2018-12-21T19:31:48.560Z,100437.81
2018-12-21T19:34:14.684Z,100440.02
2018-12-21T19:36:40.870Z,100433.84
2018-12-21T19:39:07.178Z,100429.59
2018-12-21T19:41:33.439Z,100430.69
2018-12-21T19:43:59.617Z,100428.86
2018-12-21T19:46:25.792Z,100427.63
2018-12-21T19:48:51.949Z,100424.72
2018-12-21T19:51:18.129Z,100424.50
2018-12-21T19:53:44.340Z,100425.47
2018-12-21T19:56:12.350Z,100421.83
2018-12-21T19:58:38.589Z,100417.04
2018-12-21T20:01:04.752Z,100417.77
2018-12-21T20:03:30.910Z,100422.92
2018-12-21T20:05:57.095Z,100419.31
2018-12-21T20:08:23.249Z,100418.95
2018-12-21T20:10:49.385Z,100416.28
2018-12-21T20:13:15.581Z,100414.89
2018-12-21T20:15:41.769Z,100417.16
2018-12-21T20:18:07.909Z,100420.45
2018-12-21T20:20:34.092Z,100410.94
2018-12-21T20:23:00.250Z,100408.45
2018-12-21T20:25:26.425Z,100405.39
2018-12-21T20:27:52.593Z,100404.20
2018-12-21T20:30:18.744Z,100393.83
2018-12-21T20:32:44.890Z,100384.98
2018-12-21T20:35:11.352Z,100387.95
2018-12-21T20:37:37.561Z,100374.47
2018-12-21T20:40:08.530Z,100369.50
2018-12-21T20:42:34.696Z,100371.36
2018-12-21T20:45:00.838Z,100370.03
2018-12-21T20:47:26.953Z,100366.31
2018-12-21T20:49:53.117Z,100354.46
2018-12-21T20:52:19.273Z,100354.03
2018-12-21T20:54:45.429Z,100349.92
2018-12-21T20:57:11.689Z,100353.19
2018-12-21T20:59:38.514Z,100363.27
2018-12-21T21:02:04.910Z,100357.42
2018-12-21T21:04:31.093Z,100345.64
2018-12-21T21:06:57.394Z,100340.34
2018-12-21T21:09:23.534Z,100339.98
2018-12-21T21:11:49.706Z,100333.73
2018-12-21T21:14:15.841Z,100339.52
2018-12-21T21:16:41.982Z,100328.17
2018-12-21T21:19:08.149Z,100328.23
2018-12-21T21:21:34.288Z,100323.30
2018-12-21T21:24:00.435Z,100318.47
2018-12-21T21:26:26.606Z,100313.84
2018-12-21T21:28:52.733Z,100305.32
2018-12-21T21:31:18.890Z,100306.22
2018-12-21T21:33:45.050Z,100295.87
2018-12-21T21:36:11.198Z,100292.32
2018-12-21T21:38:37.337Z,100285.95
2018-12-21T21:41:03.525Z,100288.08
2018-12-21T21:43:29.664Z,100283.45
2018-12-21T21:45:55.796Z,100290.89
2018-12-21T21:48:21.973Z,100290.20
2018-12-21T21:50:48.133Z,100285.70
2018-12-21T21:53:14.288Z,100289.34
2018-12-21T21:55:40.585Z,100281.05
2018-12-21T21:58:06.826Z,100276.36
2018-12-21T22:00:32.976Z,100280.11
2018-12-21T22:02:59.164Z,100274.17
2018-12-21T22:05:25.316Z,100269.80
2018-12-21T22:07:51.449Z,100271.17
2018-12-21T22:10:17.621Z,100270.41
2018-12-21T22:12:43.774Z,100272.70
2018-12-21T22:15:09.916Z,100265.05
2018-12-21T22:17:36.135Z,100262.62
2018-12-21T22:20:03.633Z,100270.38
2018-12-21T22:22:29.790Z,100269.12
2018-12-21T22:24:55.945Z,100274.30
2018-12-21T22:27:22.077Z,100270.36
2018-12-21T22:29:48.241Z,100264.55
2018-12-21T22:32:14.433Z,100264.08
2018-12-21T22:34:40.564Z,100264.12
2018-12-21T22:37:06.690Z,100264.50
2018-12-21T22:39:32.878Z,100266.17
2018-12-21T22:41:59.039Z,100260.52
2018-12-21T22:44:25.169Z,100255.94
2018-12-21T22:46:51.346Z,100254.14
2018-12-21T22:49:17.522Z,100257.99
2018-12-21T22:51:43.895Z,100245.23
2018-12-21T22:54:10.069Z,100248.95
2018-12-21T22:56:36.241Z,100245.61
2018-12-21T22:59:02.788Z,100236.09
2018-12-21T23:01:29.015Z,100233.54
2018-12-21T23:03:55.177Z,100226.42
2018-12-21T23:06:21.325Z,100219.55
2018-12-21T23:08:47.477Z,100217.27
2018-12-21T23:11:13.620Z,100215.94
2018-12-21T23:13:39.745Z,100213.39
2018-12-21T23:16:05.914Z,100210.62
2018-12-21T23:18:32.044Z,100205.93
2018-12-21T23:20:58.188Z,100203.27
2018-12-21T23:23:24.350Z,100207.59
2018-12-21T23:25:50.502Z,100207.86
2018-12-21T23:28:16.652Z,100197.84
2018-12-21T23:30:42.818Z,100204.11
2018-12-21T23:33:08.960Z,100203.51
2018-12-21T23:35:35.120Z,100201.47
2018-12-21T23:38:01.314Z,100201.68
2018-12-21T23:40:27.456Z,100198.09
2018-12-21T23:42:53.593Z,100195.41
2018-12-21T23:45:19.756Z,100191.44
2018-12-21T23:47:45.896Z,100184.92
2018-12-21T23:50:12.037Z,100186.02
2018-12-21T23:52:38.217Z,100179.37
2018-12-21T23:55:04.590Z,100184.06
2018-12-21T23:57:30.778Z,100182.97
2018-12-21T23:59:56.946Z,100184.44
